sensor_id;sensor_type;location;lat;lon;timestamp;pressure;altitude;pressure_sealevel;temperature;humidity
63097;BME280;49185;42.320;23.198;2023-04-27T00:00:25;94590.16;;;7.75;57.76
63097;BME280;49185;42.320;23.198;2023-04-27T00:02:51;94580.75;;;7.55;59.58
63097;BME280;49185;42.320;23.198;2023-04-27T00:05:16;94592.75;;;7.58;58.91
63097;BME280;49185;42.320;23.198;2023-04-27T00:07:42;94584.50;;;7.83;57.72
63097;BME280;49185;42.320;23.198;2023-04-27T00:10:08;94587.50;;;7.87;58.56
63097;BME280;49185;42.320;23.198;2023-04-27T00:12:33;94592.00;;;7.74;59.36
63097;BME280;49185;42.320;23.198;2023-04-27T00:14:59;94593.13;;;7.90;57.78
63097;BME280;49185;42.320;23.198;2023-04-27T00:17:24;94596.44;;;7.21;60.71
63097;BME280;49185;42.320;23.198;2023-04-27T00:19:49;94590.56;;;6.84;62.48
63097;BME280;49185;42.320;23.198;2023-04-27T00:22:15;94587.41;;;6.63;66.79
63097;BME280;49185;42.320;23.198;2023-04-27T00:24:41;94592.78;;;7.22;63.12
63097;BME280;49185;42.320;23.198;2023-04-27T00:27:06;94592.31;;;7.02;63.67
63097;BME280;49185;42.320;23.198;2023-04-27T00:29:32;94588.13;;;6.71;65.83
63097;BME280;49185;42.320;23.198;2023-04-27T00:31:57;94593.13;;;7.90;63.47
63097;BME280;49185;42.320;23.198;2023-04-27T00:34:23;94591.91;;;8.10;62.43
63097;BME280;49185;42.320;23.198;2023-04-27T00:36:48;94596.19;;;7.70;63.23
63097;BME280;49185;42.320;23.198;2023-04-27T00:39:13;94587.94;;;6.96;65.75
63097;BME280;49185;42.320;23.198;2023-04-27T00:41:39;94597.22;;;6.87;64.77
63097;BME280;49185;42.320;23.198;2023-04-27T00:44:04;94592.75;;;6.99;67.15
63097;BME280;49185;42.320;23.198;2023-04-27T00:46:31;94591.13;;;7.45;60.43
63097;BME280;49185;42.320;23.198;2023-04-27T00:48:57;94591.94;;;7.22;59.15
63097;BME280;49185;42.320;23.198;2023-04-27T00:51:23;94600.19;;;7.61;63.23
63097;BME280;49185;42.320;23.198;2023-04-27T00:53:51;94594.16;;;6.47;70.38
63097;BME280;49185;42.320;23.198;2023-04-27T00:56:16;94596.22;;;6.45;70.99
63097;BME280;49185;42.320;23.198;2023-04-27T00:58:42;94602.88;;;7.02;65.54
63097;BME280;49185;42.320;23.198;2023-04-27T01:01:08;94599.31;;;7.20;62.70
63097;BME280;49185;42.320;23.198;2023-04-27T01:03:34;94603.66;;;7.62;61.36
63097;BME280;49185;42.320;23.198;2023-04-27T01:05:59;94601.50;;;7.11;60.67
63097;BME280;49185;42.320;23.198;2023-04-27T01:08:25;94602.75;;;7.20;58.15
63097;BME280;49185;42.320;23.198;2023-04-27T01:10:50;94601.72;;;7.57;57.16
63097;BME280;49185;42.320;23.198;2023-04-27T01:13:16;94599.84;;;7.57;56.53
63097;BME280;49185;42.320;23.198;2023-04-27T01:15:41;94600.47;;;7.48;56.82
63097;BME280;49185;42.320;23.198;2023-04-27T01:18:06;94595.16;;;7.36;56.53
63097;BME280;49185;42.320;23.198;2023-04-27T01:20:32;94591.38;;;7.32;57.05
63097;BME280;49185;42.320;23.198;2023-04-27T01:22:58;94598.22;;;6.62;59.98
63097;BME280;49185;42.320;23.198;2023-04-27T01:25:24;94600.00;;;7.27;58.46
63097;BME280;49185;42.320;23.198;2023-04-27T01:27:49;94587.06;;;6.48;60.29
63097;BME280;49185;42.320;23.198;2023-04-27T01:30:15;94601.25;;;6.35;61.27
63097;BME280;49185;42.320;23.198;2023-04-27T01:32:41;94597.75;;;6.23;61.25
63097;BME280;49185;42.320;23.198;2023-04-27T01:35:06;94603.81;;;6.12;65.87
63097;BME280;49185;42.320;23.198;2023-04-27T01:37:32;94609.53;;;6.08;62.93
63097;BME280;49185;42.320;23.198;2023-04-27T01:39:58;94604.06;;;6.52;62.10
63097;BME280;49185;42.320;23.198;2023-04-27T01:42:23;94608.31;;;6.11;64.56
63097;BME280;49185;42.320;23.198;2023-04-27T01:44:49;94613.78;;;6.94;62.13
63097;BME280;49185;42.320;23.198;2023-04-27T01:47:15;94614.28;;;6.49;63.98
63097;BME280;49185;42.320;23.198;2023-04-27T01:49:40;94595.47;;;6.26;61.08
63097;BME280;49185;42.320;23.198;2023-04-27T01:52:05;94593.94;;;6.49;60.45
63097;BME280;49185;42.320;23.198;2023-04-27T01:54:31;94609.47;;;7.35;58.43
63097;BME280;49185;42.320;23.198;2023-04-27T01:56:56;94599.72;;;6.58;62.62
63097;BME280;49185;42.320;23.198;2023-04-27T01:59:22;94615.22;;;6.24;60.81
63097;BME280;49185;42.320;23.198;2023-04-27T02:01:47;94617.56;;;6.74;58.87
63097;BME280;49185;42.320;23.198;2023-04-27T02:04:12;94614.19;;;6.55;57.05
63097;BME280;49185;42.320;23.198;2023-04-27T02:06:38;94619.22;;;6.57;57.82
63097;BME280;49185;42.320;23.198;2023-04-27T02:09:03;94619.91;;;7.06;55.63
63097;BME280;49185;42.320;23.198;2023-04-27T02:11:29;94618.56;;;6.61;56.57
63097;BME280;49185;42.320;23.198;2023-04-27T02:13:54;94627.78;;;6.29;59.54
63097;BME280;49185;42.320;23.198;2023-04-27T02:16:20;94628.72;;;6.88;57.85
63097;BME280;49185;42.320;23.198;2023-04-27T02:18:45;94630.84;;;6.56;60.88
63097;BME280;49185;42.320;23.198;2023-04-27T02:21:10;94624.88;;;6.18;58.14
63097;BME280;49185;42.320;23.198;2023-04-27T02:23:36;94628.34;;;6.31;59.18
63097;BME280;49185;42.320;23.198;2023-04-27T02:26:01;94631.84;;;6.43;57.53
63097;BME280;49185;42.320;23.198;2023-04-27T02:28:27;94622.00;;;6.50;57.18
63097;BME280;49185;42.320;23.198;2023-04-27T02:30:52;94622.22;;;6.60;59.00
63097;BME280;49185;42.320;23.198;2023-04-27T02:33:18;94621.16;;;6.92;58.41
63097;BME280;49185;42.320;23.198;2023-04-27T02:35:43;94620.00;;;6.88;57.46
63097;BME280;49185;42.320;23.198;2023-04-27T02:38:08;94630.03;;;7.09;55.01
63097;BME280;49185;42.320;23.198;2023-04-27T02:40:34;94633.22;;;6.45;55.92
63097;BME280;49185;42.320;23.198;2023-04-27T02:42:59;94629.88;;;6.08;59.81
63097;BME280;49185;42.320;23.198;2023-04-27T02:45:25;94631.91;;;5.87;60.13
63097;BME280;49185;42.320;23.198;2023-04-27T02:47:50;94631.50;;;6.39;59.99
63097;BME280;49185;42.320;23.198;2023-04-27T02:50:15;94638.34;;;6.59;59.28
63097;BME280;49185;42.320;23.198;2023-04-27T02:52:41;94637.66;;;6.03;60.70
63097;BME280;49185;42.320;23.198;2023-04-27T02:55:07;94636.22;;;6.19;62.06
63097;BME280;49185;42.320;23.198;2023-04-27T02:57:32;94641.44;;;5.88;60.13
63097;BME280;49185;42.320;23.198;2023-04-27T02:59:58;94646.28;;;6.71;55.83
63097;BME280;49185;42.320;23.198;2023-04-27T03:02:23;94640.84;;;6.54;56.42
63097;BME280;49185;42.320;23.198;2023-04-27T03:04:52;94641.78;;;6.59;55.88
63097;BME280;49185;42.320;23.198;2023-04-27T03:07:17;94643.28;;;5.88;58.49
63097;BME280;49185;42.320;23.198;2023-04-27T03:09:43;94637.13;;;5.76;60.01
63097;BME280;49185;42.320;23.198;2023-04-27T03:12:08;94649.28;;;5.95;61.67
63097;BME280;49185;42.320;23.198;2023-04-27T03:14:33;94636.41;;;5.68;62.43
63097;BME280;49185;42.320;23.198;2023-04-27T03:16:59;94646.06;;;5.56;61.76
63097;BME280;49185;42.320;23.198;2023-04-27T03:19:25;94652.84;;;6.07;60.28
63097;BME280;49185;42.320;23.198;2023-04-27T03:21:50;94649.22;;;6.51;59.59
63097;BME280;49185;42.320;23.198;2023-04-27T03:24:18;94653.34;;;5.98;62.51
63097;BME280;49185;42.320;23.198;2023-04-27T03:26:44;94653.78;;;5.76;60.52
63097;BME280;49185;42.320;23.198;2023-04-27T03:29:10;94652.41;;;5.48;63.15
63097;BME280;49185;42.320;23.198;2023-04-27T03:31:35;94654.38;;;5.97;60.57
63097;BME280;49185;42.320;23.198;2023-04-27T03:34:00;94668.50;;;5.84;61.70
63097;BME280;49185;42.320;23.198;2023-04-27T03:36:26;94660.22;;;5.80;59.44
63097;BME280;49185;42.320;23.198;2023-04-27T03:38:51;94662.84;;;5.62;62.77
63097;BME280;49185;42.320;23.198;2023-04-27T03:41:17;94660.72;;;5.52;63.42
63097;BME280;49185;42.320;23.198;2023-04-27T03:43:42;94663.03;;;5.42;63.64
63097;BME280;49185;42.320;23.198;2023-04-27T03:46:07;94675.94;;;5.31;64.83
63097;BME280;49185;42.320;23.198;2023-04-27T03:48:33;94669.47;;;5.27;65.41
63097;BME280;49185;42.320;23.198;2023-04-27T03:50:59;94675.78;;;5.26;68.39
63097;BME280;49185;42.320;23.198;2023-04-27T03:53:25;94675.91;;;6.12;63.66
63097;BME280;49185;42.320;23.198;2023-04-27T03:55:50;94679.78;;;6.46;60.33
63097;BME280;49185;42.320;23.198;2023-04-27T03:58:16;94675.09;;;7.02;57.24
63097;BME280;49185;42.320;23.198;2023-04-27T04:00:41;94684.88;;;7.02;56.67
63097;BME280;49185;42.320;23.198;2023-04-27T04:03:06;94688.91;;;7.04;53.75
63097;BME280;49185;42.320;23.198;2023-04-27T04:05:32;94689.69;;;6.93;54.04
63097;BME280;49185;42.320;23.198;2023-04-27T04:07:58;94693.72;;;6.54;54.02
63097;BME280;49185;42.320;23.198;2023-04-27T04:10:24;94695.06;;;6.87;54.15
63097;BME280;49185;42.320;23.198;2023-04-27T04:12:50;94693.94;;;6.94;54.41
63097;BME280;49185;42.320;23.198;2023-04-27T04:15:15;94701.13;;;6.75;56.88
63097;BME280;49185;42.320;23.198;2023-04-27T04:17:41;94704.34;;;6.77;53.05
63097;BME280;49185;42.320;23.198;2023-04-27T04:20:07;94703.47;;;6.95;53.66
63097;BME280;49185;42.320;23.198;2023-04-27T04:22:32;94706.47;;;6.99;54.07
63097;BME280;49185;42.320;23.198;2023-04-27T04:24:57;94705.91;;;6.97;53.93
63097;BME280;49185;42.320;23.198;2023-04-27T04:27:23;94712.69;;;6.93;54.13
63097;BME280;49185;42.320;23.198;2023-04-27T04:29:48;94712.50;;;6.76;54.61
63097;BME280;49185;42.320;23.198;2023-04-27T04:32:14;94710.88;;;6.44;56.07
63097;BME280;49185;42.320;23.198;2023-04-27T04:34:39;94720.03;;;6.12;57.29
63097;BME280;49185;42.320;23.198;2023-04-27T04:37:05;94727.50;;;6.82;58.17
63097;BME280;49185;42.320;23.198;2023-04-27T04:39:30;94723.53;;;6.24;60.52
63097;BME280;49185;42.320;23.198;2023-04-27T04:41:56;94734.22;;;6.66;57.18
63097;BME280;49185;42.320;23.198;2023-04-27T04:44:21;94730.69;;;7.14;54.26
63097;BME280;49185;42.320;23.198;2023-04-27T04:46:46;94743.41;;;6.26;57.04
63097;BME280;49185;42.320;23.198;2023-04-27T04:49:12;94734.03;;;6.31;55.63
63097;BME280;49185;42.320;23.198;2023-04-27T04:51:43;94736.06;;;6.47;57.67
63097;BME280;49185;42.320;23.198;2023-04-27T04:54:09;94746.19;;;6.32;59.99
63097;BME280;49185;42.320;23.198;2023-04-27T04:56:34;94748.88;;;7.22;58.30
63097;BME280;49185;42.320;23.198;2023-04-27T04:59:00;94752.97;;;7.07;56.56
63097;BME280;49185;42.320;23.198;2023-04-27T05:01:26;94750.41;;;6.39;55.89
63097;BME280;49185;42.320;23.198;2023-04-27T05:03:51;94758.03;;;6.29;58.18
63097;BME280;49185;42.320;23.198;2023-04-27T05:06:17;94755.06;;;6.56;57.03
63097;BME280;49185;42.320;23.198;2023-04-27T05:08:42;94763.00;;;6.56;57.17
63097;BME280;49185;42.320;23.198;2023-04-27T05:11:08;94757.22;;;6.47;56.02
63097;BME280;49185;42.320;23.198;2023-04-27T05:13:33;94758.41;;;6.33;54.87
63097;BME280;49185;42.320;23.198;2023-04-27T05:16:02;94762.66;;;7.13;54.67
63097;BME280;49185;42.320;23.198;2023-04-27T05:18:28;94755.78;;;7.23;51.76
63097;BME280;49185;42.320;23.198;2023-04-27T05:20:54;94760.44;;;7.87;51.67
63097;BME280;49185;42.320;23.198;2023-04-27T05:23:19;94764.63;;;7.29;53.04
63097;BME280;49185;42.320;23.198;2023-04-27T05:25:44;94762.38;;;7.45;52.10
63097;BME280;49185;42.320;23.198;2023-04-27T05:28:10;94759.97;;;8.14;48.85
63097;BME280;49185;42.320;23.198;2023-04-27T05:30:36;94761.72;;;8.08;50.21
63097;BME280;49185;42.320;23.198;2023-04-27T05:33:02;94766.56;;;8.11;48.95
63097;BME280;49185;42.320;23.198;2023-04-27T05:35:27;94757.69;;;7.94;49.39
63097;BME280;49185;42.320;23.198;2023-04-27T05:37:53;94762.50;;;7.50;54.94
63097;BME280;49185;42.320;23.198;2023-04-27T05:40:18;94761.63;;;8.67;49.11
63097;BME280;49185;42.320;23.198;2023-04-27T05:42:47;94764.38;;;8.08;49.35
63097;BME280;49185;42.320;23.198;2023-04-27T05:45:13;94765.28;;;8.14;49.60
63097;BME280;49185;42.320;23.198;2023-04-27T05:47:38;94765.16;;;7.73;52.42
63097;BME280;49185;42.320;23.198;2023-04-27T05:50:04;94769.28;;;8.52;48.31
63097;BME280;49185;42.320;23.198;2023-04-27T05:52:30;94766.16;;;9.58;46.91
63097;BME280;49185;42.320;23.198;2023-04-27T05:54:56;94760.19;;;9.34;48.66
63097;BME280;49185;42.320;23.198;2023-04-27T05:57:22;94767.38;;;9.05;49.97
63097;BME280;49185;42.320;23.198;2023-04-27T05:59:47;94766.88;;;8.50;50.42
63097;BME280;49185;42.320;23.198;2023-04-27T06:02:13;94771.94;;;9.38;48.35
63097;BME280;49185;42.320;23.198;2023-04-27T06:04:38;94774.66;;;8.98;47.35
63097;BME280;49185;42.320;23.198;2023-04-27T06:07:11;94758.50;;;8.18;49.43
63097;BME280;49185;42.320;23.198;2023-04-27T06:09:36;94773.69;;;7.99;49.04
63097;BME280;49185;42.320;23.198;2023-04-27T06:12:03;94776.66;;;8.38;50.02
63097;BME280;49185;42.320;23.198;2023-04-27T06:14:30;94773.19;;;8.49;47.87
63097;BME280;49185;42.320;23.198;2023-04-27T06:16:55;94776.41;;;8.63;48.33
63097;BME280;49185;42.320;23.198;2023-04-27T06:19:21;94764.84;;;7.82;50.30
63097;BME280;49185;42.320;23.198;2023-04-27T06:21:46;94770.78;;;8.48;52.27
63097;BME280;49185;42.320;23.198;2023-04-27T06:24:12;94765.31;;;10.08;46.79
63097;BME280;49185;42.320;23.198;2023-04-27T06:26:37;94763.75;;;10.07;46.60
63097;BME280;49185;42.320;23.198;2023-04-27T06:29:03;94766.13;;;10.09;44.69
63097;BME280;49185;42.320;23.198;2023-04-27T06:31:28;94767.34;;;10.18;45.42
63097;BME280;49185;42.320;23.198;2023-04-27T06:33:54;94763.25;;;10.72;46.44
63097;BME280;49185;42.320;23.198;2023-04-27T06:36:20;94766.41;;;10.30;45.25
63097;BME280;49185;42.320;23.198;2023-04-27T06:38:45;94763.75;;;9.74;45.96
63097;BME280;49185;42.320;23.198;2023-04-27T06:41:11;94762.09;;;9.22;47.74
63097;BME280;49185;42.320;23.198;2023-04-27T06:43:36;94757.28;;;11.09;44.15
63097;BME280;49185;42.320;23.198;2023-04-27T06:46:02;94756.34;;;11.52;42.74
63097;BME280;49185;42.320;23.198;2023-04-27T06:48:28;94761.66;;;11.20;42.58
63097;BME280;49185;42.320;23.198;2023-04-27T06:50:53;94758.44;;;10.91;42.92
63097;BME280;49185;42.320;23.198;2023-04-27T06:53:19;94768.19;;;11.07;45.28
63097;BME280;49185;42.320;23.198;2023-04-27T06:55:44;94760.13;;;11.02;45.92
63097;BME280;49185;42.320;23.198;2023-04-27T06:58:09;94751.09;;;11.03;42.99
63097;BME280;49185;42.320;23.198;2023-04-27T07:00:35;94751.28;;;10.96;44.39
63097;BME280;49185;42.320;23.198;2023-04-27T07:03:00;94753.75;;;10.54;43.98
63097;BME280;49185;42.320;23.198;2023-04-27T07:05:26;94748.63;;;10.74;43.75
63097;BME280;49185;42.320;23.198;2023-04-27T07:07:51;94757.41;;;10.31;43.85
63097;BME280;49185;42.320;23.198;2023-04-27T07:10:17;94749.66;;;10.29;45.42
63097;BME280;49185;42.320;23.198;2023-04-27T07:12:42;94750.19;;;10.70;45.45
63097;BME280;49185;42.320;23.198;2023-04-27T07:15:08;94753.41;;;10.94;44.52
63097;BME280;49185;42.320;23.198;2023-04-27T07:17:34;94749.91;;;10.27;44.89
63097;BME280;49185;42.320;23.198;2023-04-27T07:20:03;94758.47;;;10.13;46.90
63097;BME280;49185;42.320;23.198;2023-04-27T07:22:29;94741.63;;;9.85;46.13
63097;BME280;49185;42.320;23.198;2023-04-27T07:24:54;94746.34;;;9.49;46.45
63097;BME280;49185;42.320;23.198;2023-04-27T07:27:20;94750.16;;;9.53;46.96
63097;BME280;49185;42.320;23.198;2023-04-27T07:29:45;94746.81;;;9.12;47.02
63097;BME280;49185;42.320;23.198;2023-04-27T07:32:10;94745.41;;;8.92;47.22
63097;BME280;49185;42.320;23.198;2023-04-27T07:34:36;94744.78;;;9.02;47.72
63097;BME280;49185;42.320;23.198;2023-04-27T07:37:01;94748.91;;;9.27;46.74
63097;BME280;49185;42.320;23.198;2023-04-27T07:39:27;94748.47;;;9.64;46.09
63097;BME280;49185;42.320;23.198;2023-04-27T07:41:53;94745.47;;;9.77;46.00
63097;BME280;49185;42.320;23.198;2023-04-27T07:44:18;94751.47;;;10.23;45.65
63097;BME280;49185;42.320;23.198;2023-04-27T07:46:44;94736.25;;;10.41;44.88
63097;BME280;49185;42.320;23.198;2023-04-27T07:49:10;94746.19;;;10.29;44.98
63097;BME280;49185;42.320;23.198;2023-04-27T07:51:35;94745.25;;;10.35;44.29
63097;BME280;49185;42.320;23.198;2023-04-27T07:54:01;94735.50;;;10.23;44.42
63097;BME280;49185;42.320;23.198;2023-04-27T07:56:27;94755.53;;;9.92;45.26
63097;BME280;49185;42.320;23.198;2023-04-27T07:58:52;94758.69;;;10.28;44.42
63097;BME280;49185;42.320;23.198;2023-04-27T08:01:18;94751.19;;;10.25;45.53
63097;BME280;49185;42.320;23.198;2023-04-27T08:03:43;94754.72;;;10.70;44.49
63097;BME280;49185;42.320;23.198;2023-04-27T08:06:08;94744.53;;;10.89;43.23
63097;BME280;49185;42.320;23.198;2023-04-27T08:08:34;94749.66;;;11.17;42.39
63097;BME280;49185;42.320;23.198;2023-04-27T08:10:59;94750.69;;;13.55;37.32
63097;BME280;49185;42.320;23.198;2023-04-27T08:13:25;94746.63;;;15.10;35.05
63097;BME280;49185;42.320;23.198;2023-04-27T08:15:51;94744.16;;;14.59;34.16
63097;BME280;49185;42.320;23.198;2023-04-27T08:18:16;94751.22;;;13.78;36.58
63097;BME280;49185;42.320;23.198;2023-04-27T08:20:42;94752.50;;;15.12;34.64
63097;BME280;49185;42.320;23.198;2023-04-27T08:23:08;94745.78;;;14.39;34.78
63097;BME280;49185;42.320;23.198;2023-04-27T08:25:36;94751.72;;;13.49;39.24
63097;BME280;49185;42.320;23.198;2023-04-27T08:28:02;94754.31;;;11.92;40.10
63097;BME280;49185;42.320;23.198;2023-04-27T08:30:27;94746.84;;;11.62;42.15
63097;BME280;49185;42.320;23.198;2023-04-27T08:32:53;94754.19;;;11.82;40.38
63097;BME280;49185;42.320;23.198;2023-04-27T08:35:18;94745.47;;;11.91;39.38
63097;BME280;49185;42.320;23.198;2023-04-27T08:37:43;94757.75;;;11.60;40.25
63097;BME280;49185;42.320;23.198;2023-04-27T08:40:09;94749.28;;;12.01;40.24
63097;BME280;49185;42.320;23.198;2023-04-27T08:42:35;94757.22;;;11.90;38.38
63097;BME280;49185;42.320;23.198;2023-04-27T08:45:00;94746.56;;;11.58;40.11
63097;BME280;49185;42.320;23.198;2023-04-27T08:47:26;94757.47;;;11.56;42.24
63097;BME280;49185;42.320;23.198;2023-04-27T08:49:51;94753.94;;;11.51;42.50
63097;BME280;49185;42.320;23.198;2023-04-27T08:52:17;94753.34;;;11.16;43.97
63097;BME280;49185;42.320;23.198;2023-04-27T08:54:42;94747.72;;;11.13;43.39
63097;BME280;49185;42.320;23.198;2023-04-27T08:57:14;94751.28;;;10.96;43.51
63097;BME280;49185;42.320;23.198;2023-04-27T08:59:39;94757.63;;;11.17;41.69
63097;BME280;49185;42.320;23.198;2023-04-27T09:02:05;94756.00;;;11.16;43.06
63097;BME280;49185;42.320;23.198;2023-04-27T09:04:40;94757.28;;;11.09;40.40
63097;BME280;49185;42.320;23.198;2023-04-27T09:07:15;94746.81;;;11.02;42.98
63097;BME280;49185;42.320;23.198;2023-04-27T09:09:42;94753.97;;;10.74;42.27
63097;BME280;49185;42.320;23.198;2023-04-27T09:12:18;94755.22;;;10.67;41.99
63097;BME280;49185;42.320;23.198;2023-04-27T09:14:58;94749.94;;;11.21;44.54
63097;BME280;49185;42.320;23.198;2023-04-27T09:17:27;94749.69;;;11.23;42.06
63097;BME280;49185;42.320;23.198;2023-04-27T09:20:09;94750.44;;;11.77;41.65
63097;BME280;49185;42.320;23.198;2023-04-27T09:22:44;94750.63;;;11.11;42.33
63097;BME280;49185;42.320;23.198;2023-04-27T09:25:20;94755.75;;;10.91;41.79
63097;BME280;49185;42.320;23.198;2023-04-27T09:27:46;94753.44;;;10.99;42.09
63097;BME280;49185;42.320;23.198;2023-04-27T09:30:13;94748.03;;;11.16;41.80
63097;BME280;49185;42.320;23.198;2023-04-27T09:32:38;94743.19;;;11.13;41.04
63097;BME280;49185;42.320;23.198;2023-04-27T09:35:16;94753.38;;;11.49;41.79
63097;BME280;49185;42.320;23.198;2023-04-27T09:37:44;94741.09;;;11.43;40.19
63097;BME280;49185;42.320;23.198;2023-04-27T09:40:10;94731.78;;;11.77;40.27
63097;BME280;49185;42.320;23.198;2023-04-27T09:42:36;94729.75;;;12.32;39.69
63097;BME280;49185;42.320;23.198;2023-04-27T09:45:03;94732.97;;;12.40;40.87
63097;BME280;49185;42.320;23.198;2023-04-27T09:47:31;94735.84;;;13.01;36.45
63097;BME280;49185;42.320;23.198;2023-04-27T09:49:58;94734.28;;;13.21;36.16
63097;BME280;49185;42.320;23.198;2023-04-27T09:52:24;94723.91;;;14.07;36.55
63097;BME280;49185;42.320;23.198;2023-04-27T09:54:49;94734.22;;;15.25;34.14
63097;BME280;49185;42.320;23.198;2023-04-27T09:57:42;94719.38;;;16.06;31.22
63097;BME280;49185;42.320;23.198;2023-04-27T10:03:29;94730.13;;;16.30;31.32
63097;BME280;49185;42.320;23.198;2023-04-27T10:08:50;94740.72;;;14.33;34.68
63097;BME280;49185;42.320;23.198;2023-04-27T10:11:16;94731.94;;;13.40;37.46
63097;BME280;49185;42.320;23.198;2023-04-27T10:13:52;94723.34;;;14.20;37.38
63097;BME280;49185;42.320;23.198;2023-04-27T10:16:19;94726.91;;;14.86;35.33
63097;BME280;49185;42.320;23.198;2023-04-27T10:18:53;94732.97;;;14.36;33.14
63097;BME280;49185;42.320;23.198;2023-04-27T10:21:19;94723.25;;;14.66;34.78
63097;BME280;49185;42.320;23.198;2023-04-27T10:23:49;94727.78;;;14.66;33.22
63097;BME280;49185;42.320;23.198;2023-04-27T10:26:23;94719.03;;;15.05;34.35
63097;BME280;49185;42.320;23.198;2023-04-27T10:29:15;94721.59;;;14.75;33.37
63097;BME280;49185;42.320;23.198;2023-04-27T10:31:46;94722.03;;;14.17;32.94
63097;BME280;49185;42.320;23.198;2023-04-27T10:34:16;94727.91;;;14.09;34.04
63097;BME280;49185;42.320;23.198;2023-04-27T10:36:42;94731.31;;;14.51;35.00
63097;BME280;49185;42.320;23.198;2023-04-27T10:39:18;94724.72;;;14.07;33.08
63097;BME280;49185;42.320;23.198;2023-04-27T10:41:55;94721.25;;;13.91;33.25
63097;BME280;49185;42.320;23.198;2023-04-27T10:44:27;94718.19;;;15.14;30.56
63097;BME280;49185;42.320;23.198;2023-04-27T10:46:54;94711.78;;;17.48;28.97
63097;BME280;49185;42.320;23.198;2023-04-27T10:49:20;94704.03;;;19.09;28.89
63097;BME280;49185;42.320;23.198;2023-04-27T10:51:48;94705.84;;;18.45;27.76
63097;BME280;49185;42.320;23.198;2023-04-27T10:54:14;94710.97;;;17.10;29.45
63097;BME280;49185;42.320;23.198;2023-04-27T10:56:39;94711.78;;;16.91;30.88
63097;BME280;49185;42.320;23.198;2023-04-27T10:59:05;94711.09;;;15.34;33.53
63097;BME280;49185;42.320;23.198;2023-04-27T11:01:31;94710.88;;;15.60;32.30
63097;BME280;49185;42.320;23.198;2023-04-27T11:03:57;94718.97;;;14.60;32.66
63097;BME280;49185;42.320;23.198;2023-04-27T11:06:24;94716.16;;;14.05;33.49
63097;BME280;49185;42.320;23.198;2023-04-27T11:08:49;94722.06;;;13.35;34.91
63097;BME280;49185;42.320;23.198;2023-04-27T11:11:15;94718.31;;;13.36;35.23
63097;BME280;49185;42.320;23.198;2023-04-27T11:13:42;94715.69;;;13.62;34.55
63097;BME280;49185;42.320;23.198;2023-04-27T11:16:08;94706.53;;;13.22;35.60
63097;BME280;49185;42.320;23.198;2023-04-27T11:18:36;94706.22;;;12.93;36.48
63097;BME280;49185;42.320;23.198;2023-04-27T11:21:09;94712.66;;;13.27;36.12
63097;BME280;49185;42.320;23.198;2023-04-27T11:23:35;94713.22;;;14.12;35.55
63097;BME280;49185;42.320;23.198;2023-04-27T11:26:20;94708.44;;;13.78;35.29
63097;BME280;49185;42.320;23.198;2023-04-27T11:31:27;94723.13;;;13.34;35.65
63097;BME280;49185;42.320;23.198;2023-04-27T11:33:53;94722.34;;;13.95;33.83
63097;BME280;49185;42.320;23.198;2023-04-27T11:36:21;94723.13;;;14.06;34.70
63097;BME280;49185;42.320;23.198;2023-04-27T11:38:47;94726.25;;;14.29;34.85
63097;BME280;49185;42.320;23.198;2023-04-27T11:41:13;94718.38;;;14.78;33.01
63097;BME280;49185;42.320;23.198;2023-04-27T11:43:42;94716.03;;;14.56;31.43
63097;BME280;49185;42.320;23.198;2023-04-27T11:46:08;94713.34;;;14.67;33.02
63097;BME280;49185;42.320;23.198;2023-04-27T11:48:35;94712.91;;;14.99;33.83
63097;BME280;49185;42.320;23.198;2023-04-27T11:51:01;94717.19;;;14.24;32.38
63097;BME280;49185;42.320;23.198;2023-04-27T11:53:37;94715.22;;;14.56;34.51
63097;BME280;49185;42.320;23.198;2023-04-27T11:56:04;94717.41;;;14.59;33.99
63097;BME280;49185;42.320;23.198;2023-04-27T11:58:34;94720.69;;;14.15;34.17
63097;BME280;49185;42.320;23.198;2023-04-27T12:01:00;94722.81;;;14.18;34.18
63097;BME280;49185;42.320;23.198;2023-04-27T12:03:27;94720.63;;;14.35;35.48
63097;BME280;49185;42.320;23.198;2023-04-27T12:05:53;94718.16;;;15.19;35.52
63097;BME280;49185;42.320;23.198;2023-04-27T12:08:19;94718.47;;;15.08;32.88
63097;BME280;49185;42.320;23.198;2023-04-27T12:10:45;94715.50;;;14.65;32.32
63097;BME280;49185;42.320;23.198;2023-04-27T12:13:11;94720.06;;;14.54;31.53
63097;BME280;49185;42.320;23.198;2023-04-27T12:15:37;94714.84;;;14.88;33.04
63097;BME280;49185;42.320;23.198;2023-04-27T12:18:02;94721.13;;;14.58;33.38
63097;BME280;49185;42.320;23.198;2023-04-27T12:20:28;94723.13;;;14.11;35.45
63097;BME280;49185;42.320;23.198;2023-04-27T12:22:53;94710.75;;;14.31;35.34
63097;BME280;49185;42.320;23.198;2023-04-27T12:25:19;94720.09;;;14.43;35.45
63097;BME280;49185;42.320;23.198;2023-04-27T12:27:44;94721.50;;;14.20;32.29
63097;BME280;49185;42.320;23.198;2023-04-27T12:30:10;94714.53;;;14.04;32.81
63097;BME280;49185;42.320;23.198;2023-04-27T12:32:36;94710.03;;;13.99;34.77
63097;BME280;49185;42.320;23.198;2023-04-27T12:35:01;94715.34;;;14.15;35.27
63097;BME280;49185;42.320;23.198;2023-04-27T12:37:26;94702.66;;;14.46;35.96
63097;BME280;49185;42.320;23.198;2023-04-27T12:39:52;94715.38;;;14.04;34.81
63097;BME280;49185;42.320;23.198;2023-04-27T12:42:17;94699.31;;;14.15;34.78
63097;BME280;49185;42.320;23.198;2023-04-27T12:44:43;94703.44;;;14.62;35.22
63097;BME280;49185;42.320;23.198;2023-04-27T12:47:08;94695.53;;;14.21;34.28
63097;BME280;49185;42.320;23.198;2023-04-27T12:49:33;94707.88;;;14.07;34.87
63097;BME280;49185;42.320;23.198;2023-04-27T12:51:59;94706.81;;;13.87;36.70
63097;BME280;49185;42.320;23.198;2023-04-27T12:54:24;94718.59;;;13.86;36.00
63097;BME280;49185;42.320;23.198;2023-04-27T12:56:50;94719.06;;;14.19;34.42
63097;BME280;49185;42.320;23.198;2023-04-27T12:59:15;94704.31;;;14.32;35.05